sensor_id;sensor_type;location;lat;lon;timestamp;pressure;altitude;pressure_sealevel;temperature;humidity
61528;BME280;47395;42.032;-8.634;2022-12-31T00:00:38;101191.69;;;17.74;67.23
61528;BME280;47395;42.032;-8.634;2022-12-31T00:02:39;101195.44;;;17.71;67.67
61528;BME280;47395;42.032;-8.634;2022-12-31T00:04:40;101189.69;;;17.65;67.43
61528;BME280;47395;42.032;-8.634;2022-12-31T00:06:40;101202.19;;;17.51;67.71
61528;BME280;47395;42.032;-8.634;2022-12-31T00:08:42;101191.28;;;17.67;67.08
61528;BME280;47395;42.032;-8.634;2022-12-31T00:10:44;101197.47;;;17.68;66.99
61528;BME280;47395;42.032;-8.634;2022-12-31T00:12:45;101198.78;;;17.49;67.18
61528;BME280;47395;42.032;-8.634;2022-12-31T00:14:45;101190.19;;;17.32;67.99
61528;BME280;47395;42.032;-8.634;2022-12-31T00:16:46;101198.38;;;17.42;67.74
61528;BME280;47395;42.032;-8.634;2022-12-31T00:18:51;101188.78;;;17.40;67.94
61528;BME280;47395;42.032;-8.634;2022-12-31T00:20:52;101196.97;;;17.49;67.95
61528;BME280;47395;42.032;-8.634;2022-12-31T00:22:53;101191.31;;;17.54;67.66
61528;BME280;47395;42.032;-8.634;2022-12-31T00:24:54;101186.00;;;17.41;67.66
61528;BME280;47395;42.032;-8.634;2022-12-31T00:26:55;101188.91;;;17.38;68.19
61528;BME280;47395;42.032;-8.634;2022-12-31T00:28:57;101177.91;;;17.43;67.68
61528;BME280;47395;42.032;-8.634;2022-12-31T00:31:09;101197.44;;;17.30;67.81
61528;BME280;47395;42.032;-8.634;2022-12-31T00:33:11;101190.91;;;17.47;67.39
61528;BME280;47395;42.032;-8.634;2022-12-31T00:35:11;101180.66;;;17.41;67.79
61528;BME280;47395;42.032;-8.634;2022-12-31T00:37:12;101175.13;;;17.44;67.12
61528;BME280;47395;42.032;-8.634;2022-12-31T00:39:13;101166.53;;;17.41;66.83
61528;BME280;47395;42.032;-8.634;2022-12-31T00:41:16;101174.69;;;17.64;66.75
61528;BME280;47395;42.032;-8.634;2022-12-31T00:43:17;101179.94;;;17.39;67.08
61528;BME280;47395;42.032;-8.634;2022-12-31T00:45:18;101166.63;;;17.39;67.08
61528;BME280;47395;42.032;-8.634;2022-12-31T00:47:18;101184.72;;;17.47;66.41
61528;BME280;47395;42.032;-8.634;2022-12-31T00:49:19;101171.50;;;17.45;66.71
61528;BME280;47395;42.032;-8.634;2022-12-31T00:51:22;101165.34;;;17.45;66.73
61528;BME280;47395;42.032;-8.634;2022-12-31T00:53:24;101175.75;;;17.48;66.46
61528;BME280;47395;42.032;-8.634;2022-12-31T00:55:25;101181.22;;;17.33;66.90
61528;BME280;47395;42.032;-8.634;2022-12-31T00:57:26;101173.22;;;17.33;66.96
61528;BME280;47395;42.032;-8.634;2022-12-31T00:59:27;101169.38;;;17.51;66.39
61528;BME280;47395;42.032;-8.634;2022-12-31T01:01:30;101160.03;;;17.45;65.74
61528;BME280;47395;42.032;-8.634;2022-12-31T01:03:31;101169.59;;;17.34;66.16
61528;BME280;47395;42.032;-8.634;2022-12-31T01:05:33;101166.41;;;17.42;65.71
61528;BME280;47395;42.032;-8.634;2022-12-31T01:07:36;101158.72;;;17.51;65.62
61528;BME280;47395;42.032;-8.634;2022-12-31T01:09:37;101174.06;;;17.47;66.02
61528;BME280;47395;42.032;-8.634;2022-12-31T01:11:38;101152.44;;;17.39;65.72
61528;BME280;47395;42.032;-8.634;2022-12-31T01:13:39;101167.91;;;17.33;65.56
61528;BME280;47395;42.032;-8.634;2022-12-31T01:15:39;101160.56;;;17.24;65.91
61528;BME280;47395;42.032;-8.634;2022-12-31T01:17:40;101170.69;;;17.19;65.74
61528;BME280;47395;42.032;-8.634;2022-12-31T01:19:42;101132.00;;;17.39;65.51
61528;BME280;47395;42.032;-8.634;2022-12-31T01:21:44;101153.22;;;17.15;65.43
61528;BME280;47395;42.032;-8.634;2022-12-31T01:23:45;101169.06;;;17.29;65.73
61528;BME280;47395;42.032;-8.634;2022-12-31T01:25:46;101153.56;;;17.23;65.53
61528;BME280;47395;42.032;-8.634;2022-12-31T01:27:47;101163.88;;;17.15;65.65
61528;BME280;47395;42.032;-8.634;2022-12-31T01:29:47;101164.94;;;17.12;65.89
61528;BME280;47395;42.032;-8.634;2022-12-31T01:31:48;101162.81;;;17.17;65.53
61528;BME280;47395;42.032;-8.634;2022-12-31T01:33:50;101166.25;;;17.19;65.82
61528;BME280;47395;42.032;-8.634;2022-12-31T01:35:51;101156.75;;;17.15;65.80
61528;BME280;47395;42.032;-8.634;2022-12-31T01:37:52;101149.19;;;17.09;65.58
61528;BME280;47395;42.032;-8.634;2022-12-31T01:39:52;101159.63;;;17.12;65.62
61528;BME280;47395;42.032;-8.634;2022-12-31T01:41:53;101158.13;;;17.21;65.48
61528;BME280;47395;42.032;-8.634;2022-12-31T01:44:00;101150.69;;;17.26;65.26
61528;BME280;47395;42.032;-8.634;2022-12-31T01:46:01;101150.03;;;17.22;65.37
61528;BME280;47395;42.032;-8.634;2022-12-31T01:48:02;101153.09;;;17.29;65.65
61528;BME280;47395;42.032;-8.634;2022-12-31T01:50:07;101156.19;;;17.10;65.78
61528;BME280;47395;42.032;-8.634;2022-12-31T01:52:13;101139.91;;;17.15;65.82
61528;BME280;47395;42.032;-8.634;2022-12-31T01:54:17;101132.03;;;17.13;65.45
61528;BME280;47395;42.032;-8.634;2022-12-31T01:56:21;101143.75;;;17.11;65.75
61528;BME280;47395;42.032;-8.634;2022-12-31T01:58:29;101137.44;;;16.99;65.75
61528;BME280;47395;42.032;-8.634;2022-12-31T02:00:31;101145.97;;;17.17;65.34
61528;BME280;47395;42.032;-8.634;2022-12-31T02:02:32;101145.16;;;17.16;65.50
61528;BME280;47395;42.032;-8.634;2022-12-31T02:04:33;101137.56;;;17.10;65.33
61528;BME280;47395;42.032;-8.634;2022-12-31T02:06:41;101144.50;;;17.26;65.30
61528;BME280;47395;42.032;-8.634;2022-12-31T02:08:42;101136.53;;;17.13;65.54
61528;BME280;47395;42.032;-8.634;2022-12-31T02:10:43;101134.81;;;17.25;65.80
61528;BME280;47395;42.032;-8.634;2022-12-31T02:12:45;101138.00;;;17.17;65.60
61528;BME280;47395;42.032;-8.634;2022-12-31T02:14:49;101134.91;;;16.97;65.76
61528;BME280;47395;42.032;-8.634;2022-12-31T02:18:01;101126.59;;;16.89;66.32
61528;BME280;47395;42.032;-8.634;2022-12-31T02:25:14;101130.75;;;16.93;65.95
61528;BME280;47395;42.032;-8.634;2022-12-31T02:27:51;101124.25;;;17.10;65.48
61528;BME280;47395;42.032;-8.634;2022-12-31T02:30:22;101119.78;;;17.11;65.65
61528;BME280;47395;42.032;-8.634;2022-12-31T02:33:17;101137.25;;;17.02;65.41
61528;BME280;47395;42.032;-8.634;2022-12-31T02:35:00;101110.94;;;16.97;65.74
61528;BME280;47395;42.032;-8.634;2022-12-31T02:37:09;101116.16;;;17.12;65.20
61528;BME280;47395;42.032;-8.634;2022-12-31T02:39:13;101124.22;;;17.36;64.75
61528;BME280;47395;42.032;-8.634;2022-12-31T02:41:17;101114.25;;;16.88;65.66
61528;BME280;47395;42.032;-8.634;2022-12-31T02:43:45;101118.00;;;17.11;65.57
61528;BME280;47395;42.032;-8.634;2022-12-31T02:46:07;101100.28;;;17.23;65.05
61528;BME280;47395;42.032;-8.634;2022-12-31T02:53:48;101094.47;;;17.05;65.25
61528;BME280;47395;42.032;-8.634;2022-12-31T02:56:05;101087.72;;;16.99;65.03
61528;BME280;47395;42.032;-8.634;2022-12-31T02:58:27;101102.84;;;16.99;65.48
61528;BME280;47395;42.032;-8.634;2022-12-31T03:00:53;101095.81;;;17.23;64.40
61528;BME280;47395;42.032;-8.634;2022-12-31T03:03:14;101098.81;;;17.06;64.90
61528;BME280;47395;42.032;-8.634;2022-12-31T03:05:18;101092.66;;;17.05;65.46
61528;BME280;47395;42.032;-8.634;2022-12-31T03:07:23;101093.28;;;17.09;65.22
61528;BME280;47395;42.032;-8.634;2022-12-31T03:09:24;101086.47;;;17.18;64.60
61528;BME280;47395;42.032;-8.634;2022-12-31T03:11:25;101080.91;;;17.21;65.03
61528;BME280;47395;42.032;-8.634;2022-12-31T03:13:45;101081.97;;;17.18;64.75
61528;BME280;47395;42.032;-8.634;2022-12-31T03:15:45;101072.19;;;16.93;64.87
61528;BME280;47395;42.032;-8.634;2022-12-31T03:18:00;101075.16;;;17.14;64.85
61528;BME280;47395;42.032;-8.634;2022-12-31T03:20:01;101072.72;;;16.98;64.54
61528;BME280;47395;42.032;-8.634;2022-12-31T03:22:20;101072.63;;;16.87;65.47
61528;BME280;47395;42.032;-8.634;2022-12-31T03:24:27;101059.09;;;16.90;65.51
61528;BME280;47395;42.032;-8.634;2022-12-31T03:26:46;101057.84;;;16.69;65.06
61528;BME280;47395;42.032;-8.634;2022-12-31T03:28:48;101072.00;;;16.70;65.38
61528;BME280;47395;42.032;-8.634;2022-12-31T03:30:54;101077.41;;;16.68;65.07
61528;BME280;47395;42.032;-8.634;2022-12-31T03:32:55;101073.16;;;16.92;64.89
61528;BME280;47395;42.032;-8.634;2022-12-31T03:34:56;101073.81;;;16.82;65.13
61528;BME280;47395;42.032;-8.634;2022-12-31T03:36:57;101080.91;;;16.56;65.60
61528;BME280;47395;42.032;-8.634;2022-12-31T03:38:58;101063.38;;;16.53;65.35
61528;BME280;47395;42.032;-8.634;2022-12-31T03:40:58;101060.59;;;16.55;65.23
61528;BME280;47395;42.032;-8.634;2022-12-31T03:42:59;101062.31;;;16.69;65.15
61528;BME280;47395;42.032;-8.634;2022-12-31T03:45:00;101058.38;;;16.49;64.97
61528;BME280;47395;42.032;-8.634;2022-12-31T03:47:01;101047.84;;;16.60;64.47
61528;BME280;47395;42.032;-8.634;2022-12-31T03:49:02;101049.53;;;16.74;64.55
61528;BME280;47395;42.032;-8.634;2022-12-31T03:51:03;101057.41;;;16.50;65.04
61528;BME280;47395;42.032;-8.634;2022-12-31T03:53:04;101057.66;;;16.60;64.44
61528;BME280;47395;42.032;-8.634;2022-12-31T03:55:06;101052.09;;;16.63;64.40
61528;BME280;47395;42.032;-8.634;2022-12-31T03:57:07;101057.31;;;16.64;64.57
61528;BME280;47395;42.032;-8.634;2022-12-31T03:59:07;101036.78;;;16.53;64.80
61528;BME280;47395;42.032;-8.634;2022-12-31T04:01:08;101042.00;;;16.42;64.65
61528;BME280;47395;42.032;-8.634;2022-12-31T04:03:09;101048.03;;;16.57;64.72
61528;BME280;47395;42.032;-8.634;2022-12-31T04:05:10;101036.97;;;16.37;64.72
61528;BME280;47395;42.032;-8.634;2022-12-31T04:07:11;101038.56;;;16.40;64.46
61528;BME280;47395;42.032;-8.634;2022-12-31T04:09:12;101025.72;;;16.34;64.58
61528;BME280;47395;42.032;-8.634;2022-12-31T04:11:13;101034.41;;;16.36;64.68
61528;BME280;47395;42.032;-8.634;2022-12-31T04:13:14;101034.22;;;16.39;64.43
61528;BME280;47395;42.032;-8.634;2022-12-31T04:15:18;101019.34;;;16.36;64.03
61528;BME280;47395;42.032;-8.634;2022-12-31T04:17:19;101019.34;;;16.36;63.96
61528;BME280;47395;42.032;-8.634;2022-12-31T04:19:19;101027.84;;;16.41;63.99
61528;BME280;47395;42.032;-8.634;2022-12-31T04:21:21;101025.06;;;16.56;63.50
61528;BME280;47395;42.032;-8.634;2022-12-31T04:23:21;101013.59;;;16.55;63.59
61528;BME280;47395;42.032;-8.634;2022-12-31T04:25:22;101013.25;;;16.34;64.05
61528;BME280;47395;42.032;-8.634;2022-12-31T04:27:23;101022.19;;;16.33;64.01
61528;BME280;47395;42.032;-8.634;2022-12-31T04:29:24;101001.69;;;16.35;63.75
61528;BME280;47395;42.032;-8.634;2022-12-31T04:31:25;101002.53;;;16.36;64.12
61528;BME280;47395;42.032;-8.634;2022-12-31T04:33:27;101005.59;;;16.29;63.72
61528;BME280;47395;42.032;-8.634;2022-12-31T04:35:28;101004.66;;;16.30;63.66
61528;BME280;47395;42.032;-8.634;2022-12-31T04:37:29;101001.03;;;16.31;64.04
61528;BME280;47395;42.032;-8.634;2022-12-31T04:39:30;101014.56;;;16.28;63.64
61528;BME280;47395;42.032;-8.634;2022-12-31T04:41:31;100997.41;;;16.33;63.28
61528;BME280;47395;42.032;-8.634;2022-12-31T04:43:32;100996.97;;;16.26;63.57
61528;BME280;47395;42.032;-8.634;2022-12-31T04:45:34;100993.91;;;16.32;63.60
61528;BME280;47395;42.032;-8.634;2022-12-31T04:47:35;100991.66;;;16.26;62.63
61528;BME280;47395;42.032;-8.634;2022-12-31T04:49:37;100992.66;;;16.38;62.74
61528;BME280;47395;42.032;-8.634;2022-12-31T04:51:38;100996.38;;;16.35;62.87
61528;BME280;47395;42.032;-8.634;2022-12-31T04:53:39;100994.88;;;16.31;62.62
61528;BME280;47395;42.032;-8.634;2022-12-31T04:55:41;100999.66;;;16.39;62.05
61528;BME280;47395;42.032;-8.634;2022-12-31T04:57:42;100992.53;;;16.26;61.93
61528;BME280;47395;42.032;-8.634;2022-12-31T04:59:43;100986.47;;;16.37;61.67
61528;BME280;47395;42.032;-8.634;2022-12-31T05:06:18;100984.66;;;16.38;60.54
61528;BME280;47395;42.032;-8.634;2022-12-31T05:08:19;100977.31;;;16.41;60.50
61528;BME280;47395;42.032;-8.634;2022-12-31T05:10:20;100972.00;;;16.41;60.08
61528;BME280;47395;42.032;-8.634;2022-12-31T05:12:21;100976.78;;;16.62;60.26
61528;BME280;47395;42.032;-8.634;2022-12-31T05:14:22;100958.38;;;16.59;59.91
61528;BME280;47395;42.032;-8.634;2022-12-31T05:16:23;100962.75;;;16.47;59.41
61528;BME280;47395;42.032;-8.634;2022-12-31T05:18:23;100965.59;;;16.70;59.22
61528;BME280;47395;42.032;-8.634;2022-12-31T05:20:24;100959.66;;;16.40;58.84
61528;BME280;47395;42.032;-8.634;2022-12-31T05:22:25;100964.66;;;16.58;58.78
61528;BME280;47395;42.032;-8.634;2022-12-31T05:24:29;100966.69;;;16.41;59.10
61528;BME280;47395;42.032;-8.634;2022-12-31T05:26:30;100962.84;;;16.33;59.08
61528;BME280;47395;42.032;-8.634;2022-12-31T05:28:30;100967.00;;;16.37;58.80
61528;BME280;47395;42.032;-8.634;2022-12-31T05:30:32;100968.56;;;16.65;58.13
61528;BME280;47395;42.032;-8.634;2022-12-31T05:32:33;100974.22;;;16.48;58.23
61528;BME280;47395;42.032;-8.634;2022-12-31T05:34:33;100975.94;;;16.36;58.21
61528;BME280;47395;42.032;-8.634;2022-12-31T05:36:34;100970.81;;;16.46;57.68
61528;BME280;47395;42.032;-8.634;2022-12-31T05:38:36;100967.72;;;16.52;57.32
61528;BME280;47395;42.032;-8.634;2022-12-31T05:40:37;100969.13;;;16.44;56.92
61528;BME280;47395;42.032;-8.634;2022-12-31T05:42:38;100956.25;;;16.51;56.47
61528;BME280;47395;42.032;-8.634;2022-12-31T05:44:39;100947.69;;;16.72;56.73
61528;BME280;47395;42.032;-8.634;2022-12-31T05:46:40;100944.66;;;16.52;56.65
61528;BME280;47395;42.032;-8.634;2022-12-31T05:48:40;100939.28;;;16.65;56.00
61528;BME280;47395;42.032;-8.634;2022-12-31T05:50:41;100950.91;;;16.77;56.25
61528;BME280;47395;42.032;-8.634;2022-12-31T05:52:43;100952.28;;;16.70;55.99
61528;BME280;47395;42.032;-8.634;2022-12-31T05:54:44;100951.53;;;16.68;55.14
61528;BME280;47395;42.032;-8.634;2022-12-31T05:56:45;100952.28;;;16.70;55.78
61528;BME280;47395;42.032;-8.634;2022-12-31T05:58:45;100944.63;;;16.65;55.74
61528;BME280;47395;42.032;-8.634;2022-12-31T06:00:46;100953.22;;;16.82;54.87
61528;BME280;47395;42.032;-8.634;2022-12-31T06:02:47;100946.91;;;16.83;54.61
61528;BME280;47395;42.032;-8.634;2022-12-31T06:04:48;100952.69;;;16.77;55.02
61528;BME280;47395;42.032;-8.634;2022-12-31T06:06:50;100950.59;;;16.69;54.86
61528;BME280;47395;42.032;-8.634;2022-12-31T06:08:51;100938.97;;;16.70;55.09
61528;BME280;47395;42.032;-8.634;2022-12-31T06:10:52;100949.72;;;16.68;54.74
61528;BME280;47395;42.032;-8.634;2022-12-31T06:12:52;100952.84;;;16.62;55.10
61528;BME280;47395;42.032;-8.634;2022-12-31T06:14:53;100955.03;;;16.68;54.89
61528;BME280;47395;42.032;-8.634;2022-12-31T06:16:54;100951.63;;;16.79;54.23
61528;BME280;47395;42.032;-8.634;2022-12-31T06:18:55;100952.13;;;16.84;54.69
61528;BME280;47395;42.032;-8.634;2022-12-31T06:20:59;100948.97;;;16.79;54.63
61528;BME280;47395;42.032;-8.634;2022-12-31T06:23:00;100967.94;;;16.62;54.36
61528;BME280;47395;42.032;-8.634;2022-12-31T06:25:01;100960.38;;;16.68;53.71
61528;BME280;47395;42.032;-8.634;2022-12-31T06:27:01;100957.50;;;16.72;54.29
61528;BME280;47395;42.032;-8.634;2022-12-31T06:29:05;100965.69;;;16.68;54.10
61528;BME280;47395;42.032;-8.634;2022-12-31T06:31:10;100961.66;;;16.63;53.89
61528;BME280;47395;42.032;-8.634;2022-12-31T06:33:11;100965.88;;;16.78;54.00
61528;BME280;47395;42.032;-8.634;2022-12-31T06:35:12;100966.09;;;16.88;53.77
61528;BME280;47395;42.032;-8.634;2022-12-31T06:37:15;100962.31;;;16.66;54.00
61528;BME280;47395;42.032;-8.634;2022-12-31T06:39:16;100966.09;;;16.75;53.73
61528;BME280;47395;42.032;-8.634;2022-12-31T06:41:17;100971.63;;;16.85;52.98
61528;BME280;47395;42.032;-8.634;2022-12-31T06:43:18;100972.59;;;16.71;53.76
61528;BME280;47395;42.032;-8.634;2022-12-31T06:45:19;100964.50;;;16.73;53.72
61528;BME280;47395;42.032;-8.634;2022-12-31T06:47:20;100968.44;;;16.67;53.22
61528;BME280;47395;42.032;-8.634;2022-12-31T06:49:21;100986.53;;;16.75;53.09
61528;BME280;47395;42.032;-8.634;2022-12-31T06:51:22;100976.13;;;16.72;53.25
61528;BME280;47395;42.032;-8.634;2022-12-31T06:53:23;100983.97;;;16.86;52.78
61528;BME280;47395;42.032;-8.634;2022-12-31T06:55:24;100963.44;;;16.75;53.19
61528;BME280;47395;42.032;-8.634;2022-12-31T06:57:26;100969.78;;;16.86;52.61
61528;BME280;47395;42.032;-8.634;2022-12-31T06:59:28;100970.09;;;16.94;52.72
61528;BME280;47395;42.032;-8.634;2022-12-31T07:02:04;100977.41;;;16.66;53.03
61528;BME280;47395;42.032;-8.634;2022-12-31T07:06:37;100977.50;;;16.77;53.15
61528;BME280;47395;42.032;-8.634;2022-12-31T07:08:59;100981.50;;;16.96;52.56
61528;BME280;47395;42.032;-8.634;2022-12-31T07:11:29;100988.13;;;16.77;52.57
61528;BME280;47395;42.032;-8.634;2022-12-31T07:14:03;100982.69;;;16.92;52.88
61528;BME280;47395;42.032;-8.634;2022-12-31T07:16:20;100984.50;;;16.78;52.45
61528;BME280;47395;42.032;-8.634;2022-12-31T07:18:44;100986.00;;;16.82;53.14
61528;BME280;47395;42.032;-8.634;2022-12-31T07:20:46;100967.88;;;16.88;53.23
61528;BME280;47395;42.032;-8.634;2022-12-31T07:22:47;100970.84;;;16.96;52.78
61528;BME280;47395;42.032;-8.634;2022-12-31T07:24:48;100958.75;;;16.79;52.79
61528;BME280;47395;42.032;-8.634;2022-12-31T07:30:01;100958.06;;;17.01;52.65
61528;BME280;47395;42.032;-8.634;2022-12-31T07:35:01;100954.22;;;16.92;52.22
61528;BME280;47395;42.032;-8.634;2022-12-31T07:37:17;100953.81;;;16.99;52.72
61528;BME280;47395;42.032;-8.634;2022-12-31T07:41:15;100947.31;;;16.90;52.92
61528;BME280;47395;42.032;-8.634;2022-12-31T07:44:46;100953.91;;;16.97;52.54
61528;BME280;47395;42.032;-8.634;2022-12-31T07:46:57;100950.53;;;16.95;52.33
61528;BME280;47395;42.032;-8.634;2022-12-31T07:48:59;100954.22;;;16.92;52.25
61528;BME280;47395;42.032;-8.634;2022-12-31T07:51:00;100952.22;;;16.96;52.44
61528;BME280;47395;42.032;-8.634;2022-12-31T07:53:01;100944.84;;;17.00;51.77
61528;BME280;47395;42.032;-8.634;2022-12-31T07:55:02;100957.13;;;16.89;52.17
61528;BME280;47395;42.032;-8.634;2022-12-31T07:57:03;100957.13;;;16.89;52.13
61528;BME280;47395;42.032;-8.634;2022-12-31T08:04:12;100955.81;;;17.08;51.67
61528;BME280;47395;42.032;-8.634;2022-12-31T08:06:55;100973.06;;;17.02;51.78
61528;BME280;47395;42.032;-8.634;2022-12-31T08:11:49;100955.53;;;17.24;51.75
61528;BME280;47395;42.032;-8.634;2022-12-31T08:13:54;100939.69;;;17.22;51.71
61528;BME280;47395;42.032;-8.634;2022-12-31T08:15:56;100954.53;;;17.14;51.90
61528;BME280;47395;42.032;-8.634;2022-12-31T08:17:57;100940.38;;;17.13;51.18
61528;BME280;47395;42.032;-8.634;2022-12-31T08:19:58;100947.28;;;17.16;51.08
61528;BME280;47395;42.032;-8.634;2022-12-31T08:25:13;100957.09;;;17.15;52.06
61528;BME280;47395;42.032;-8.634;2022-12-31T08:27:26;100939.28;;;17.16;51.21
61528;BME280;47395;42.032;-8.634;2022-12-31T08:30:13;100953.84;;;17.23;51.03
61528;BME280;47395;42.032;-8.634;2022-12-31T08:36:02;100961.66;;;17.38;50.89
61528;BME280;47395;42.032;-8.634;2022-12-31T08:37:43;100948.25;;;17.39;50.04
61528;BME280;47395;42.032;-8.634;2022-12-31T08:40:12;100970.94;;;17.32;51.03
61528;BME280;47395;42.032;-8.634;2022-12-31T08:42:39;100953.16;;;17.32;50.79
61528;BME280;47395;42.032;-8.634;2022-12-31T08:44:58;100955.59;;;17.60;50.07
61528;BME280;47395;42.032;-8.634;2022-12-31T08:47:09;100963.34;;;17.63;49.81
61528;BME280;47395;42.032;-8.634;2022-12-31T08:49:14;100961.19;;;17.68;49.67
61528;BME280;47395;42.032;-8.634;2022-12-31T08:51:23;100958.88;;;17.99;49.00
61528;BME280;47395;42.032;-8.634;2022-12-31T08:53:25;100961.88;;;17.95;48.90
61528;BME280;47395;42.032;-8.634;2022-12-31T08:55:27;100956.53;;;17.95;48.98
61528;BME280;47395;42.032;-8.634;2022-12-31T08:58:08;100964.91;;;18.01;49.08
61528;BME280;47395;42.032;-8.634;2022-12-31T09:00:17;100991.03;;;17.85;48.69
61528;BME280;47395;42.032;-8.634;2022-12-31T09:02:59;100946.81;;;18.41;48.62
61528;BME280;47395;42.032;-8.634;2022-12-31T09:16:02;100966.22;;;18.55;47.24
61528;BME280;47395;42.032;-8.634;2022-12-31T09:18:08;100943.97;;;18.88;47.89
61528;BME280;47395;42.032;-8.634;2022-12-31T09:20:23;100953.06;;;18.86;46.84
61528;BME280;47395;42.032;-8.634;2022-12-31T09:22:24;100967.53;;;18.72;46.11
61528;BME280;47395;42.032;-8.634;2022-12-31T09:24:26;100964.00;;;18.83;46.63
61528;BME280;47395;42.032;-8.634;2022-12-31T09:29:57;100950.06;;;18.90;45.62
61528;BME280;47395;42.032;-8.634;2022-12-31T09:32:33;100955.03;;;19.07;45.66
61528;BME280;47395;42.032;-8.634;2022-12-31T09:34:45;100944.28;;;19.18;45.65
61528;BME280;47395;42.032;-8.634;2022-12-31T09:36:49;100913.66;;;19.34;44.98
61528;BME280;47395;42.032;-8.634;2022-12-31T09:39:21;100931.13;;;19.05;45.60
61528;BME280;47395;42.032;-8.634;2022-12-31T09:47:48;100942.19;;;19.33;44.85
61528;BME280;47395;42.032;-8.634;2022-12-31T09:53:25;100949.16;;;19.13;45.54
61528;BME280;47395;42.032;-8.634;2022-12-31T09:56:01;100930.81;;;19.20;45.03
61528;BME280;47395;42.032;-8.634;2022-12-31T10:00:42;100947.25;;;19.90;44.17
61528;BME280;47395;42.032;-8.634;2022-12-31T10:03:07;100959.50;;;19.72;43.41
61528;BME280;47395;42.032;-8.634;2022-12-31T10:06:02;100955.63;;;19.43;44.36
61528;BME280;47395;42.032;-8.634;2022-12-31T10:10:56;100964.44;;;19.22;44.91
61528;BME280;47395;42.032;-8.634;2022-12-31T10:16:30;100964.53;;;19.32;44.75
61528;BME280;47395;42.032;-8.634;2022-12-31T10:19:30;100962.06;;;19.08;44.39
61528;BME280;47395;42.032;-8.634;2022-12-31T10:22:22;100952.66;;;19.25;44.25
61528;BME280;47395;42.032;-8.634;2022-12-31T10:25:10;100957.53;;;19.20;44.81
61528;BME280;47395;42.032;-8.634;2022-12-31T10:28:13;100946.03;;;19.40;44.74
61528;BME280;47395;42.032;-8.634;2022-12-31T10:30:23;100960.19;;;19.20;44.01
61528;BME280;47395;42.032;-8.634;2022-12-31T10:38:10;100948.63;;;19.63;43.47
61528;BME280;47395;42.032;-8.634;2022-12-31T10:58:13;100919.81;;;20.09;42.25
61528;BME280;47395;42.032;-8.634;2022-12-31T11:02:25;100914.19;;;19.91;42.51
61528;BME280;47395;42.032;-8.634;2022-12-31T11:05:09;100907.44;;;20.18;42.31
61528;BME280;47395;42.032;-8.634;2022-12-31T11:07:32;100902.41;;;20.25;41.66
61528;BME280;47395;42.032;-8.634;2022-12-31T11:10:19;100899.34;;;20.30;41.75
61528;BME280;47395;42.032;-8.634;2022-12-31T11:12:51;100914.78;;;21.18;40.38
61528;BME280;47395;42.032;-8.634;2022-12-31T11:20:32;100914.63;;;21.10;39.70
61528;BME280;47395;42.032;-8.634;2022-12-31T11:28:53;100897.72;;;19.43;42.53
61528;BME280;47395;42.032;-8.634;2022-12-31T11:36:39;100896.84;;;19.64;42.71
61528;BME280;47395;42.032;-8.634;2022-12-31T11:38:50;100890.22;;;19.80;42.64
61528;BME280;47395;42.032;-8.634;2022-12-31T11:41:22;100905.31;;;19.69;42.84
61528;BME280;47395;42.032;-8.634;2022-12-31T11:43:31;100913.34;;;19.91;42.22
61528;BME280;47395;42.032;-8.634;2022-12-31T11:46:02;100905.00;;;20.37;40.95
61528;BME280;47395;42.032;-8.634;2022-12-31T11:48:34;100927.66;;;19.90;41.23
61528;BME280;47395;42.032;-8.634;2022-12-31T11:51:09;100921.19;;;20.35;41.46
61528;BME280;47395;42.032;-8.634;2022-12-31T11:53:27;100920.78;;;20.40;40.96
61528;BME280;47395;42.032;-8.634;2022-12-31T11:58:17;100910.22;;;20.07;41.03
61528;BME280;47395;42.032;-8.634;2022-12-31T12:00:22;100921.53;;;20.93;40.42
61528;BME280;47395;42.032;-8.634;2022-12-31T12:02:31;100931.81;;;20.97;40.05
61528;BME280;47395;42.032;-8.634;2022-12-31T12:04:33;100910.03;;;20.81;40.14
61528;BME280;47395;42.032;-8.634;2022-12-31T12:06:34;100906.50;;;20.70;40.64
61528;BME280;47395;42.032;-8.634;2022-12-31T12:08:35;100896.94;;;20.78;41.12
61528;BME280;47395;42.032;-8.634;2022-12-31T12:13:19;100902.34;;;20.05;42.34
61528;BME280;47395;42.032;-8.634;2022-12-31T12:15:26;100896.19;;;20.15;42.59
61528;BME280;47395;42.032;-8.634;2022-12-31T12:17:29;100891.31;;;19.99;41.71
61528;BME280;47395;42.032;-8.634;2022-12-31T12:19:34;100896.66;;;20.30;40.75
61528;BME280;47395;42.032;-8.634;2022-12-31T12:21:44;100891.00;;;20.64;40.50
61528;BME280;47395;42.032;-8.634;2022-12-31T12:24:05;100883.03;;;20.43;40.18
61528;BME280;47395;42.032;-8.634;2022-12-31T12:26:47;100868.09;;;21.31;38.76
61528;BME280;47395;42.032;-8.634;2022-12-31T12:28:49;100880.09;;;21.17;38.85
61528;BME280;47395;42.032;-8.634;2022-12-31T12:31:01;100875.31;;;21.98;37.88
61528;BME280;47395;42.032;-8.634;2022-12-31T12:33:03;100872.78;;;22.80;36.40
61528;BME280;47395;42.032;-8.634;2022-12-31T12:35:23;100880.22;;;22.68;36.75
61528;BME280;47395;42.032;-8.634;2022-12-31T12:37:33;100873.41;;;22.74;36.75
61528;BME280;47395;42.032;-8.634;2022-12-31T12:39:34;100874.00;;;22.12;37.90
61528;BME280;47395;42.032;-8.634;2022-12-31T12:41:35;100865.66;;;21.57;38.44
61528;BME280;47395;42.032;-8.634;2022-12-31T12:43:37;100844.34;;;22.13;37.68
61528;BME280;47395;42.032;-8.634;2022-12-31T12:45:45;100854.38;;;22.11;38.02
61528;BME280;47395;42.032;-8.634;2022-12-31T12:47:49;100860.47;;;22.32;37.43
61528;BME280;47395;42.032;-8.634;2022-12-31T12:49:53;100828.84;;;22.53;37.94
61528;BME280;47395;42.032;-8.634;2022-12-31T12:54:49;100823.41;;;22.73;37.53
61528;BME280;47395;42.032;-8.634;2022-12-31T12:57:09;100815.19;;;22.28;39.11
61528;BME280;47395;42.032;-8.634;2022-12-31T12:59:44;100823.16;;;21.82;40.94
61528;BME280;47395;42.032;-8.634;2022-12-31T13:02:22;100826.38;;;20.89;41.94
61528;BME280;47395;42.032;-8.634;2022-12-31T13:04:40;100829.75;;;21.30;42.46